sensor_id;sensor_type;location;lat;lon;timestamp;temperature;humidity
26272;DHT22;13997;48.902;12.472;2023-06-04T05:38:34;359.00;2329.60
26272;DHT22;13997;48.902;12.472;2023-06-04T05:41:01;359.20;2329.60
26272;DHT22;13997;48.902;12.472;2023-06-04T05:43:27;359.30;2329.60
26272;DHT22;13997;48.902;12.472;2023-06-04T05:45:53;384.00;2329.60
26272;DHT22;13997;48.902;12.472;2023-06-04T05:48:19;384.20;2329.60
26272;DHT22;13997;48.902;12.472;2023-06-04T05:50:45;384.30;2329.60
26272;DHT22;13997;48.902;12.472;2023-06-04T05:53:12;384.50;2329.60
26272;DHT22;13997;48.902;12.472;2023-06-04T05:55:38;384.70;2329.60
26272;DHT22;13997;48.902;12.472;2023-06-04T05:58:03;384.90;2329.60
26272;DHT22;13997;48.902;12.472;2023-06-04T06:00:29;409.60;2355.20
26272;DHT22;13997;48.902;12.472;2023-06-04T06:02:55;409.70;2355.20
26272;DHT22;13997;48.902;12.472;2023-06-04T06:05:21;409.90;2355.20
26272;DHT22;13997;48.902;12.472;2023-06-04T06:07:47;410.10;2355.20
26272;DHT22;13997;48.902;12.472;2023-06-04T06:10:13;410.20;2355.20
26272;DHT22;13997;48.902;12.472;2023-06-04T06:22:24;410.40;2355.20
26272;DHT22;13997;48.902;12.472;2023-06-04T06:24:50;435.50;2355.20
26272;DHT22;13997;48.902;12.472;2023-06-04T06:27:17;435.50;2355.20
26272;DHT22;13997;48.902;12.472;2023-06-04T06:29:43;435.50;2355.20
26272;DHT22;13997;48.902;12.472;2023-06-04T06:32:11;435.50;2355.20
26272;DHT22;13997;48.902;12.472;2023-06-04T06:34:37;435.50;2355.20
26272;DHT22;13997;48.902;12.472;2023-06-04T06:37:06;435.80;2355.20
26272;DHT22;13997;48.902;12.472;2023-06-04T06:39:32;436.00;2355.20
26272;DHT22;13997;48.902;12.472;2023-06-04T06:41:58;460.80;2380.80
26272;DHT22;13997;48.902;12.472;2023-06-04T06:44:23;460.80;2380.80
26272;DHT22;13997;48.902;12.472;2023-06-04T06:46:49;460.90;2380.80
26272;DHT22;13997;48.902;12.472;2023-06-04T06:49:17;460.90;2380.80
26272;DHT22;13997;48.902;12.472;2023-06-04T06:51:43;460.90;2380.80
26272;DHT22;13997;48.902;12.472;2023-06-04T06:54:09;461.10;2380.80
26272;DHT22;13997;48.902;12.472;2023-06-04T06:56:35;461.10;2380.80
26272;DHT22;13997;48.902;12.472;2023-06-04T06:59:00;461.10;2380.80
26272;DHT22;13997;48.902;12.472;2023-06-04T07:01:26;461.20;2380.80
26272;DHT22;13997;48.902;12.472;2023-06-04T07:03:52;461.30;2380.80
26272;DHT22;13997;48.902;12.472;2023-06-04T07:06:18;461.50;2380.80
26272;DHT22;13997;48.902;12.472;2023-06-04T07:08:43;461.70;2380.80
26272;DHT22;13997;48.902;12.472;2023-06-04T07:11:09;486.40;2380.80
26272;DHT22;13997;48.902;12.472;2023-06-04T07:13:38;486.60;2380.80
26272;DHT22;13997;48.902;12.472;2023-06-04T07:16:04;486.70;2380.80
26272;DHT22;13997;48.902;12.472;2023-06-04T07:18:29;486.70;2380.80
26272;DHT22;13997;48.902;12.472;2023-06-04T07:20:55;486.80;2380.80
26272;DHT22;13997;48.902;12.472;2023-06-04T07:23:20;486.90;2380.80
26272;DHT22;13997;48.902;12.472;2023-06-04T07:25:46;486.90;2380.80
26272;DHT22;13997;48.902;12.472;2023-06-04T07:28:12;487.00;2380.80
26272;DHT22;13997;48.902;12.472;2023-06-04T07:30:38;487.10;2380.80
26272;DHT22;13997;48.902;12.472;2023-06-04T07:33:03;487.30;2380.80
26272;DHT22;13997;48.902;12.472;2023-06-04T07:35:29;512.00;2380.80
26272;DHT22;13997;48.902;12.472;2023-06-04T07:37:54;512.00;2380.80
26272;DHT22;13997;48.902;12.472;2023-06-04T07:40:20;512.00;2380.80
26272;DHT22;13997;48.902;12.472;2023-06-04T07:42:46;487.30;2380.80
26272;DHT22;13997;48.902;12.472;2023-06-04T07:45:15;512.00;2380.80
26272;DHT22;13997;48.902;12.472;2023-06-04T07:47:41;512.10;2380.80
26272;DHT22;13997;48.902;12.472;2023-06-04T07:52:33;512.20;2380.80
26272;DHT22;13997;48.902;12.472;2023-06-04T07:54:59;512.60;2380.80
26272;DHT22;13997;48.902;12.472;2023-06-04T07:57:25;512.80;2380.80
26272;DHT22;13997;48.902;12.472;2023-06-04T07:59:50;512.90;2380.80
26272;DHT22;13997;48.902;12.472;2023-06-04T10:58:59;537.60;2406.40
26272;DHT22;13997;48.902;12.472;2023-06-04T11:01:25;666.00;1484.80
26272;DHT22;13997;48.902;12.472;2023-06-04T11:03:51;665.80;1484.80
26272;DHT22;13997;48.902;12.472;2023-06-04T11:06:17;665.60;1433.60
26272;DHT22;13997;48.902;12.472;2023-06-04T11:08:43;665.70;1459.20
26272;DHT22;13997;48.902;12.472;2023-06-04T11:11:13;665.80;1510.40
26272;DHT22;13997;48.902;12.472;2023-06-04T11:13:40;666.10;1484.80
26272;DHT22;13997;48.902;12.472;2023-06-04T11:16:19;666.10;1408.00
26272;DHT22;13997;48.902;12.472;2023-06-04T11:18:57;666.10;1459.20
26272;DHT22;13997;48.902;12.472;2023-06-04T11:21:24;666.10;1510.40
26272;DHT22;13997;48.902;12.472;2023-06-04T11:23:57;665.90;1433.60
26272;DHT22;13997;48.902;12.472;2023-06-04T11:26:22;666.40;1484.80
26272;DHT22;13997;48.902;12.472;2023-06-04T11:28:54;666.20;1433.60
26272;DHT22;13997;48.902;12.472;2023-06-04T11:31:20;666.50;1459.20
26272;DHT22;13997;48.902;12.472;2023-06-04T11:33:47;666.50;1433.60
26272;DHT22;13997;48.902;12.472;2023-06-04T11:36:26;691.20;1459.20
26272;DHT22;13997;48.902;12.472;2023-06-04T11:41:22;691.30;1408.00
26272;DHT22;13997;48.902;12.472;2023-06-04T11:43:48;666.50;1382.40
26272;DHT22;13997;48.902;12.472;2023-06-04T11:46:14;665.70;1408.00
26272;DHT22;13997;48.902;12.472;2023-06-04T11:48:40;665.70;1433.60
26272;DHT22;13997;48.902;12.472;2023-06-04T11:51:08;665.80;1433.60
26272;DHT22;13997;48.902;12.472;2023-06-04T11:53:37;666.00;1433.60
26272;DHT22;13997;48.902;12.472;2023-06-04T11:56:04;640.80;1356.80
26272;DHT22;13997;48.902;12.472;2023-06-04T11:58:30;640.70;1382.40
26272;DHT22;13997;48.902;12.472;2023-06-04T12:00:57;665.70;1459.20
26272;DHT22;13997;48.902;12.472;2023-06-04T12:03:40;666.20;1510.40
26272;DHT22;13997;48.902;12.472;2023-06-04T12:06:16;691.20;1510.40
26272;DHT22;13997;48.902;12.472;2023-06-04T12:08:53;691.40;1408.00
26272;DHT22;13997;48.902;12.472;2023-06-04T12:13:57;691.60;1433.60
26272;DHT22;13997;48.902;12.472;2023-06-04T12:16:23;692.10;1408.00
26272;DHT22;13997;48.902;12.472;2023-06-04T12:18:49;716.90;1433.60
26272;DHT22;13997;48.902;12.472;2023-06-04T14:43:11;716.90;1408.00
26272;DHT22;13997;48.902;12.472;2023-06-04T14:45:37;640.80;1433.60
26272;DHT22;13997;48.902;12.472;2023-06-04T14:48:05;640.60;1433.60
26272;DHT22;13997;48.902;12.472;2023-06-04T14:50:31;640.90;1433.60
26272;DHT22;13997;48.902;12.472;2023-06-04T14:52:56;665.70;1484.80
26272;DHT22;13997;48.902;12.472;2023-06-04T14:55:24;665.90;1484.80
26272;DHT22;13997;48.902;12.472;2023-06-04T14:57:50;666.10;1510.40
26272;DHT22;13997;48.902;12.472;2023-06-04T15:00:16;666.30;1536.00
26272;DHT22;13997;48.902;12.472;2023-06-04T15:02:42;666.40;1536.00
26272;DHT22;13997;48.902;12.472;2023-06-04T15:05:08;666.40;1510.40
26272;DHT22;13997;48.902;12.472;2023-06-04T15:07:34;666.40;1484.80
26272;DHT22;13997;48.902;12.472;2023-06-04T15:09:59;666.20;1459.20
26272;DHT22;13997;48.902;12.472;2023-06-04T15:12:27;666.20;1484.80
26272;DHT22;13997;48.902;12.472;2023-06-04T15:14:53;666.30;1510.40
26272;DHT22;13997;48.902;12.472;2023-06-04T15:17:19;666.20;1433.60
26272;DHT22;13997;48.902;12.472;2023-06-04T15:19:44;666.20;1484.80
26272;DHT22;13997;48.902;12.472;2023-06-04T15:22:10;666.10;1459.20
26272;DHT22;13997;48.902;12.472;2023-06-04T15:24:35;666.20;1536.00
26272;DHT22;13997;48.902;12.472;2023-06-04T15:27:04;666.10;1536.00
26272;DHT22;13997;48.902;12.472;2023-06-04T15:29:30;666.00;1510.40
26272;DHT22;13997;48.902;12.472;2023-06-04T15:31:57;665.70;1459.20
26272;DHT22;13997;48.902;12.472;2023-06-04T15:34:22;665.60;1433.60
26272;DHT22;13997;48.902;12.472;2023-06-04T15:36:48;640.90;1433.60
26272;DHT22;13997;48.902;12.472;2023-06-04T15:39:14;640.80;1459.20
26272;DHT22;13997;48.902;12.472;2023-06-04T15:41:39;640.70;1382.40
26272;DHT22;13997;48.902;12.472;2023-06-04T15:44:05;640.70;1459.20
26272;DHT22;13997;48.902;12.472;2023-06-04T15:46:31;640.80;1484.80
26272;DHT22;13997;48.902;12.472;2023-06-04T15:48:57;640.70;1459.20
26272;DHT22;13997;48.902;12.472;2023-06-04T15:51:22;640.40;1459.20
26272;DHT22;13997;48.902;12.472;2023-06-04T15:53:48;640.40;1484.80
26272;DHT22;13997;48.902;12.472;2023-06-04T15:56:13;640.40;1459.20
26272;DHT22;13997;48.902;12.472;2023-06-04T15:58:42;640.40;1459.20
26272;DHT22;13997;48.902;12.472;2023-06-04T16:01:07;640.30;1484.80
26272;DHT22;13997;48.902;12.472;2023-06-04T16:03:33;640.20;1510.40
26272;DHT22;13997;48.902;12.472;2023-06-04T16:05:59;640.20;1510.40
26272;DHT22;13997;48.902;12.472;2023-06-04T16:08:25;640.20;1561.60
26272;DHT22;13997;48.902;12.472;2023-06-04T16:10:50;640.00;1536.00
26272;DHT22;13997;48.902;12.472;2023-06-04T16:13:16;615.20;1536.00
26272;DHT22;13997;48.902;12.472;2023-06-04T16:15:42;614.90;1536.00
26272;DHT22;13997;48.902;12.472;2023-06-04T16:18:07;614.90;1561.60
26272;DHT22;13997;48.902;12.472;2023-06-04T16:20:33;615.00;1561.60
26272;DHT22;13997;48.902;12.472;2023-06-04T16:22:59;614.90;1587.20
26272;DHT22;13997;48.902;12.472;2023-06-04T16:25:25;614.90;1587.20
26272;DHT22;13997;48.902;12.472;2023-06-04T16:27:50;614.70;1561.60
26272;DHT22;13997;48.902;12.472;2023-06-04T16:30:16;614.60;1536.00
26272;DHT22;13997;48.902;12.472;2023-06-04T16:32:42;614.60;1561.60
26272;DHT22;13997;48.902;12.472;2023-06-04T16:35:08;614.60;1561.60
26272;DHT22;13997;48.902;12.472;2023-06-04T16:37:35;614.70;1561.60
26272;DHT22;13997;48.902;12.472;2023-06-04T16:40:01;614.70;1536.00
26272;DHT22;13997;48.902;12.472;2023-06-04T16:42:27;614.70;1561.60
26272;DHT22;13997;48.902;12.472;2023-06-04T16:44:53;614.60;1561.60
26272;DHT22;13997;48.902;12.472;2023-06-04T16:47:19;614.50;1536.00
26272;DHT22;13997;48.902;12.472;2023-06-04T16:49:45;614.50;1510.40
26272;DHT22;13997;48.902;12.472;2023-06-04T16:52:11;614.40;1561.60
26272;DHT22;13997;48.902;12.472;2023-06-04T16:54:36;589.70;1561.60
26272;DHT22;13997;48.902;12.472;2023-06-04T16:57:02;589.60;1536.00
26272;DHT22;13997;48.902;12.472;2023-06-04T16:59:28;589.40;1536.00
26272;DHT22;13997;48.902;12.472;2023-06-04T17:01:56;589.20;1536.00
26272;DHT22;13997;48.902;12.472;2023-06-04T17:04:22;589.20;1536.00
26272;DHT22;13997;48.902;12.472;2023-06-04T17:06:48;589.20;1536.00
26272;DHT22;13997;48.902;12.472;2023-06-04T17:09:13;589.20;1561.60
26272;DHT22;13997;48.902;12.472;2023-06-04T17:11:39;589.20;1561.60
26272;DHT22;13997;48.902;12.472;2023-06-04T17:14:05;589.10;1561.60
26272;DHT22;13997;48.902;12.472;2023-06-04T17:16:31;589.00;1536.00
26272;DHT22;13997;48.902;12.472;2023-06-04T17:18:57;589.00;1561.60
26272;DHT22;13997;48.902;12.472;2023-06-04T17:21:22;589.00;1536.00
26272;DHT22;13997;48.902;12.472;2023-06-04T17:23:48;588.90;1561.60
26272;DHT22;13997;48.902;12.472;2023-06-04T17:26:14;588.90;1536.00
26272;DHT22;13997;48.902;12.472;2023-06-04T17:28:40;588.90;1561.60
26272;DHT22;13997;48.902;12.472;2023-06-04T17:31:06;588.80;1536.00
26272;DHT22;13997;48.902;12.472;2023-06-04T17:33:31;588.80;1536.00
26272;DHT22;13997;48.902;12.472;2023-06-04T17:35:57;588.80;1561.60
26272;DHT22;13997;48.902;12.472;2023-06-04T17:38:23;564.10;1561.60
26272;DHT22;13997;48.902;12.472;2023-06-04T17:40:48;564.10;1536.00
26272;DHT22;13997;48.902;12.472;2023-06-04T17:43:14;564.10;1536.00
26272;DHT22;13997;48.902;12.472;2023-06-04T17:45:40;564.10;1561.60
26272;DHT22;13997;48.902;12.472;2023-06-04T17:48:06;564.10;1561.60
26272;DHT22;13997;48.902;12.472;2023-06-04T17:50:31;563.90;1561.60
26272;DHT22;13997;48.902;12.472;2023-06-04T17:52:57;563.90;1561.60
26272;DHT22;13997;48.902;12.472;2023-06-04T17:55:23;563.90;1587.20
26272;DHT22;13997;48.902;12.472;2023-06-04T17:57:48;563.80;1561.60
26272;DHT22;13997;48.902;12.472;2023-06-04T18:00:15;563.80;1587.20
26272;DHT22;13997;48.902;12.472;2023-06-04T18:02:40;563.80;1587.20
26272;DHT22;13997;48.902;12.472;2023-06-04T18:05:08;563.70;1587.20
26272;DHT22;13997;48.902;12.472;2023-06-04T18:07:33;563.60;1587.20
26272;DHT22;13997;48.902;12.472;2023-06-04T18:09:59;563.50;1587.20
26272;DHT22;13997;48.902;12.472;2023-06-04T18:12:25;563.40;1587.20
26272;DHT22;13997;48.902;12.472;2023-06-04T18:14:51;563.30;1587.20
26272;DHT22;13997;48.902;12.472;2023-06-04T18:17:16;563.20;1587.20
26272;DHT22;13997;48.902;12.472;2023-06-04T18:19:42;563.20;1587.20
26272;DHT22;13997;48.902;12.472;2023-06-04T18:22:08;538.50;1587.20
26272;DHT22;13997;48.902;12.472;2023-06-04T18:24:33;538.50;1587.20
26272;DHT22;13997;48.902;12.472;2023-06-04T18:26:59;538.40;1587.20
26272;DHT22;13997;48.902;12.472;2023-06-04T18:29:25;538.40;1561.60
26272;DHT22;13997;48.902;12.472;2023-06-04T18:31:51;538.40;1587.20
26272;DHT22;13997;48.902;12.472;2023-06-04T18:34:16;538.40;1587.20
26272;DHT22;13997;48.902;12.472;2023-06-04T18:36:51;538.40;1612.80
26272;DHT22;13997;48.902;12.472;2023-06-04T18:39:22;538.30;1587.20
26272;DHT22;13997;48.902;12.472;2023-06-04T18:41:48;538.30;1612.80
26272;DHT22;13997;48.902;12.472;2023-06-04T18:44:15;538.20;1612.80
26272;DHT22;13997;48.902;12.472;2023-06-04T18:46:41;538.20;1612.80
26272;DHT22;13997;48.902;12.472;2023-06-04T18:49:07;538.20;1612.80
26272;DHT22;13997;48.902;12.472;2023-06-04T18:51:32;538.10;1638.40
26272;DHT22;13997;48.902;12.472;2023-06-04T18:53:58;538.10;1638.40
26272;DHT22;13997;48.902;12.472;2023-06-04T18:56:23;538.00;1638.40
26272;DHT22;13997;48.902;12.472;2023-06-04T18:58:50;538.00;1638.40
26272;DHT22;13997;48.902;12.472;2023-06-04T19:01:17;537.90;1638.40
26272;DHT22;13997;48.902;12.472;2023-06-04T19:03:43;537.80;1638.40
26272;DHT22;13997;48.902;12.472;2023-06-04T19:06:09;537.80;1664.00
26272;DHT22;13997;48.902;12.472;2023-06-04T19:08:34;537.70;1664.00
26272;DHT22;13997;48.902;12.472;2023-06-04T19:11:00;537.70;1664.00
26272;DHT22;13997;48.902;12.472;2023-06-04T19:13:26;537.70;1664.00
26272;DHT22;13997;48.902;12.472;2023-06-04T19:15:51;537.60;1689.60
26272;DHT22;13997;48.902;12.472;2023-06-04T19:18:18;537.60;1689.60
26272;DHT22;13997;48.902;12.472;2023-06-04T19:20:44;512.90;1689.60
26272;DHT22;13997;48.902;12.472;2023-06-04T19:23:10;512.80;1689.60
26272;DHT22;13997;48.902;12.472;2023-06-04T19:25:36;512.80;1689.60
26272;DHT22;13997;48.902;12.472;2023-06-04T19:28:05;512.70;1689.60
26272;DHT22;13997;48.902;12.472;2023-06-04T19:30:31;512.70;1689.60
26272;DHT22;13997;48.902;12.472;2023-06-04T19:32:57;512.70;1689.60
26272;DHT22;13997;48.902;12.472;2023-06-04T19:35:23;512.60;1715.20
26272;DHT22;13997;48.902;12.472;2023-06-04T19:37:49;512.50;1715.20
26272;DHT22;13997;48.902;12.472;2023-06-04T19:40:15;512.40;1715.20
26272;DHT22;13997;48.902;12.472;2023-06-04T19:42:44;512.40;1740.80
26272;DHT22;13997;48.902;12.472;2023-06-04T19:45:10;512.30;1740.80
26272;DHT22;13997;48.902;12.472;2023-06-04T19:47:36;512.30;1766.40
26272;DHT22;13997;48.902;12.472;2023-06-04T19:50:03;512.20;1766.40
26272;DHT22;13997;48.902;12.472;2023-06-04T19:52:29;512.20;1766.40
26272;DHT22;13997;48.902;12.472;2023-06-04T19:54:56;512.10;1766.40
26272;DHT22;13997;48.902;12.472;2023-06-04T19:57:21;512.10;1766.40
26272;DHT22;13997;48.902;12.472;2023-06-04T19:59:47;512.00;1792.00
26272;DHT22;13997;48.902;12.472;2023-06-04T20:02:12;512.00;1792.00
26272;DHT22;13997;48.902;12.472;2023-06-04T20:04:38;512.00;1792.00
26272;DHT22;13997;48.902;12.472;2023-06-04T20:07:04;487.30;1792.00
26272;DHT22;13997;48.902;12.472;2023-06-04T20:09:32;487.30;1817.60
26272;DHT22;13997;48.902;12.472;2023-06-04T20:11:58;487.30;1817.60
26272;DHT22;13997;48.902;12.472;2023-06-04T20:14:23;487.30;1817.60
26272;DHT22;13997;48.902;12.472;2023-06-04T20:16:49;487.30;1817.60
26272;DHT22;13997;48.902;12.472;2023-06-04T20:19:14;487.30;1817.60
26272;DHT22;13997;48.902;12.472;2023-06-04T20:21:40;487.20;1843.20
26272;DHT22;13997;48.902;12.472;2023-06-04T20:24:06;487.10;1843.20
26272;DHT22;13997;48.902;12.472;2023-06-04T20:26:33;487.10;1843.20
26272;DHT22;13997;48.902;12.472;2023-06-04T20:29:00;487.10;1843.20
26272;DHT22;13997;48.902;12.472;2023-06-04T20:31:26;487.10;1868.80
26272;DHT22;13997;48.902;12.472;2023-06-04T20:33:52;487.00;1843.20
26272;DHT22;13997;48.902;12.472;2023-06-04T20:36:24;487.00;1868.80
26272;DHT22;13997;48.902;12.472;2023-06-04T20:38:50;487.00;1894.40
26272;DHT22;13997;48.902;12.472;2023-06-04T20:41:20;487.00;1894.40
26272;DHT22;13997;48.902;12.472;2023-06-04T20:43:52;487.00;1894.40
26272;DHT22;13997;48.902;12.472;2023-06-04T20:46:18;486.90;1920.00
26272;DHT22;13997;48.902;12.472;2023-06-04T20:48:44;486.90;1920.00
26272;DHT22;13997;48.902;12.472;2023-06-04T20:51:11;486.90;1945.60
26272;DHT22;13997;48.902;12.472;2023-06-04T20:53:37;486.80;1945.60
26272;DHT22;13997;48.902;12.472;2023-06-04T20:56:03;486.80;1971.20
26272;DHT22;13997;48.902;12.472;2023-06-04T20:58:29;486.80;1996.80
26272;DHT22;13997;48.902;12.472;2023-06-04T21:00:55;486.70;2022.40
26272;DHT22;13997;48.902;12.472;2023-06-04T21:03:21;486.70;2022.40
26272;DHT22;13997;48.902;12.472;2023-06-04T21:05:47;486.70;2022.40
26272;DHT22;13997;48.902;12.472;2023-06-04T21:08:13;486.70;2022.40
26272;DHT22;13997;48.902;12.472;2023-06-04T21:10:38;486.60;2022.40
26272;DHT22;13997;48.902;12.472;2023-06-04T21:13:04;486.60;2022.40
26272;DHT22;13997;48.902;12.472;2023-06-04T21:15:30;486.60;2048.00
26272;DHT22;13997;48.902;12.472;2023-06-04T21:17:55;486.50;2048.00
26272;DHT22;13997;48.902;12.472;2023-06-04T21:20:21;486.50;2048.00
26272;DHT22;13997;48.902;12.472;2023-06-04T21:22:46;486.50;2048.00
26272;DHT22;13997;48.902;12.472;2023-06-04T21:25:12;486.50;2048.00
26272;DHT22;13997;48.902;12.472;2023-06-04T21:27:38;486.50;2048.00
26272;DHT22;13997;48.902;12.472;2023-06-04T21:30:04;486.50;2048.00
26272;DHT22;13997;48.902;12.472;2023-06-04T21:32:30;486.50;2048.00
26272;DHT22;13997;48.902;12.472;2023-06-04T21:34:56;486.40;2048.00
26272;DHT22;13997;48.902;12.472;2023-06-04T21:37:21;486.40;2048.00
26272;DHT22;13997;48.902;12.472;2023-06-04T21:39:47;486.40;2048.00
26272;DHT22;13997;48.902;12.472;2023-06-04T21:42:12;486.40;2048.00
26272;DHT22;13997;48.902;12.472;2023-06-04T21:44:38;461.70;2048.00
26272;DHT22;13997;48.902;12.472;2023-06-04T21:47:04;461.70;2048.00
26272;DHT22;13997;48.902;12.472;2023-06-04T21:49:29;461.70;2048.00
26272;DHT22;13997;48.902;12.472;2023-06-04T21:51:55;461.70;2048.00
26272;DHT22;13997;48.902;12.472;2023-06-04T21:54:20;461.70;2073.60
26272;DHT22;13997;48.902;12.472;2023-06-04T21:56:46;461.70;2073.60
26272;DHT22;13997;48.902;12.472;2023-06-04T21:59:12;461.60;2073.60
26272;DHT22;13997;48.902;12.472;2023-06-04T22:01:38;461.60;2099.20
26272;DHT22;13997;48.902;12.472;2023-06-04T22:04:04;461.60;2099.20
26272;DHT22;13997;48.902;12.472;2023-06-04T22:06:29;461.50;2124.80
26272;DHT22;13997;48.902;12.472;2023-06-04T22:08:55;461.40;2124.80
26272;DHT22;13997;48.902;12.472;2023-06-04T22:11:21;461.40;2124.80
26272;DHT22;13997;48.902;12.472;2023-06-04T22:13:47;461.40;2150.40
26272;DHT22;13997;48.902;12.472;2023-06-04T22:16:13;461.30;2150.40
26272;DHT22;13997;48.902;12.472;2023-06-04T22:18:39;461.30;2150.40
26272;DHT22;13997;48.902;12.472;2023-06-04T22:21:04;461.30;2176.00
26272;DHT22;13997;48.902;12.472;2023-06-04T22:23:30;461.30;2176.00
26272;DHT22;13997;48.902;12.472;2023-06-04T22:25:56;461.30;2176.00
26272;DHT22;13997;48.902;12.472;2023-06-04T22:28:23;461.20;2176.00
26272;DHT22;13997;48.902;12.472;2023-06-04T22:30:48;461.30;2176.00
26272;DHT22;13997;48.902;12.472;2023-06-04T22:33:14;461.20;2176.00
26272;DHT22;13997;48.902;12.472;2023-06-04T22:35:39;461.20;2176.00
26272;DHT22;13997;48.902;12.472;2023-06-04T22:38:05;461.10;2176.00
26272;DHT22;13997;48.902;12.472;2023-06-04T22:40:31;461.10;2176.00
26272;DHT22;13997;48.902;12.472;2023-06-04T22:42:56;461.00;2201.60
26272;DHT22;13997;48.902;12.472;2023-06-04T22:45:22;461.00;2201.60
26272;DHT22;13997;48.902;12.472;2023-06-04T22:47:47;461.00;2201.60
26272;DHT22;13997;48.902;12.472;2023-06-04T22:50:13;461.00;2201.60
26272;DHT22;13997;48.902;12.472;2023-06-04T22:52:38;460.90;2201.60
26272;DHT22;13997;48.902;12.472;2023-06-04T22:55:07;460.90;2227.20
26272;DHT22;13997;48.902;12.472;2023-06-04T22:57:33;460.80;2201.60
26272;DHT22;13997;48.902;12.472;2023-06-04T22:59:59;460.80;2227.20
26272;DHT22;13997;48.902;12.472;2023-06-04T23:02:24;460.80;2227.20
26272;DHT22;13997;48.902;12.472;2023-06-04T23:04:51;460.80;2201.60
26272;DHT22;13997;48.902;12.472;2023-06-04T23:07:17;436.10;2176.00
26272;DHT22;13997;48.902;12.472;2023-06-04T23:09:42;436.10;2176.00
26272;DHT22;13997;48.902;12.472;2023-06-04T23:12:08;436.10;2176.00
26272;DHT22;13997;48.902;12.472;2023-06-04T23:14:34;436.10;2150.40
26272;DHT22;13997;48.902;12.472;2023-06-04T23:17:00;436.10;2176.00
26272;DHT22;13997;48.902;12.472;2023-06-04T23:19:26;436.10;2176.00
26272;DHT22;13997;48.902;12.472;2023-06-04T23:21:51;436.10;2176.00
26272;DHT22;13997;48.902;12.472;2023-06-04T23:24:17;436.10;2176.00
26272;DHT22;13997;48.902;12.472;2023-06-04T23:26:43;436.10;2176.00
26272;DHT22;13997;48.902;12.472;2023-06-04T23:29:08;436.10;2201.60
26272;DHT22;13997;48.902;12.472;2023-06-04T23:31:34;460.80;2252.80
26272;DHT22;13997;48.902;12.472;2023-06-04T23:34:00;460.80;2278.40
26272;DHT22;13997;48.902;12.472;2023-06-04T23:36:25;436.10;2252.80
26272;DHT22;13997;48.902;12.472;2023-06-04T23:38:51;436.10;2278.40
26272;DHT22;13997;48.902;12.472;2023-06-04T23:41:16;436.10;2304.00
26272;DHT22;13997;48.902;12.472;2023-06-04T23:43:42;436.10;2304.00
26272;DHT22;13997;48.902;12.472;2023-06-04T23:46:07;436.00;2329.60
26272;DHT22;13997;48.902;12.472;2023-06-04T23:48:33;436.00;2355.20
26272;DHT22;13997;48.902;12.472;2023-06-04T23:50:59;436.00;2355.20
26272;DHT22;13997;48.902;12.472;2023-06-04T23:53:24;435.90;2355.20
26272;DHT22;13997;48.902;12.472;2023-06-04T23:55:50;435.90;2355.20
26272;DHT22;13997;48.902;12.472;2023-06-04T23:58:16;435.90;2355.20
